Time;durP1;ratioP1;P1;durP2;ratioP2;P2;SDS_P1;SDS_P2;PMS_P1;PMS_P2;Temp;Humidity;BMP_temperature;BMP_pressure;BME280_temperature;BME280_humidity;BME280_pressure;Samples;Min_cycle;Max_cycle;Signal;HPM_P1;HPM_P2
2021/07/06 00:01:20;;;;;;;;;;;;;;;20.77;61.18;101280.06;5112853;28;19924;-72
2021/07/06 00:03:47;;;;;;;;;;;;;;;20.82;61.80;101278.66;5112648;28;20289;-72
2021/07/06 00:06:15;;;;;;;;;;;;;;;20.76;61.91;101281.03;5113007;28;19927;-73
2021/07/06 00:08:41;;;;;;;;;;;;;;;20.67;62.09;101280.03;5112626;28;19930;-73
2021/07/06 00:11:08;;;;;;;;;;;;;;;20.81;61.78;101284.09;5112841;28;20386;-73
2021/07/06 00:13:35;;;;;;;;;;;;;;;20.88;61.45;101285.19;5112805;28;19930;-72
2021/07/06 00:16:01;;;;;;;;;;;;;;;20.88;61.26;101272.84;5112624;28;19923;-72
2021/07/06 00:18:28;;;;;;;;;;;;;;;20.60;62.21;101279.75;5112707;28;19930;-74
2021/07/06 00:20:54;;;;;;;;;;;;;;;20.45;63.84;101275.81;5112502;28;20378;-73
2021/07/06 00:23:22;;;;;;;;;;;;;;;20.48;62.65;101280.00;5112740;28;19923;-73
2021/07/06 00:25:49;;;;;;;;;;;;;;;20.60;62.23;101281.53;5112732;28;19931;-74
2021/07/06 00:28:16;;;;;;;;;;;;;;;20.78;61.66;101285.22;5112996;28;19931;-73
2021/07/06 00:30:42;;;;;;;;;;;;;;;20.38;63.46;101272.84;5112628;28;19934;-73
2021/07/06 00:33:09;;;;;;;;;;;;;;;20.16;65.13;101268.63;5112626;28;19931;-73
2021/07/06 00:35:36;;;;;;;;;;;;;;;19.96;66.05;101280.06;5113071;28;19931;-73
2021/07/06 00:38:03;;;;;;;;;;;;;;;19.87;66.29;101275.59;5116451;28;19928;-73
2021/07/06 00:40:31;;;;;;;;;;;;;;;19.84;66.56;101273.25;5116475;28;20292;-73
2021/07/06 00:42:59;;;;;;;;;;;;;;;20.31;63.98;101266.44;5116588;28;19947;-74
2021/07/06 00:45:27;;;;;;;;;;;;;;;20.35;63.78;101274.94;5116797;28;19947;-73
2021/07/06 00:47:53;;;;;;;;;;;;;;;20.26;64.28;101267.81;5116467;28;19924;-74
2021/07/06 00:50:22;;;;;;;;;;;;;;;20.48;63.96;101272.06;5116172;28;19924;-73
2021/07/06 00:52:49;;;;;;;;;;;;;;;20.28;64.81;101276.47;5116168;28;19930;-73
2021/07/06 00:55:15;;;;;;;;;;;;;;;20.24;64.58;101278.50;5116622;28;19924;-73
2021/07/06 00:57:44;;;;;;;;;;;;;;;20.03;66.68;101278.59;5116250;28;19934;-73
2021/07/06 01:00:12;;;;;;;;;;;;;;;20.05;66.05;101268.72;5115927;28;19924;-73
2021/07/06 01:02:39;;;;;;;;;;;;;;;20.25;65.73;101272.28;5116107;28;19924;-73
2021/07/06 01:05:07;;;;;;;;;;;;;;;20.52;64.12;101279.56;5116048;28;19938;-73
2021/07/06 01:07:34;;;;;;;;;;;;;;;20.35;66.60;101280.25;5116316;28;19928;-73
2021/07/06 01:10:01;;;;;;;;;;;;;;;20.28;67.27;101279.09;5116281;28;19930;-73
2021/07/06 01:12:31;;;;;;;;;;;;;;;20.29;67.50;101275.47;5116160;28;19924;-73
2021/07/06 01:14:59;;;;;;;;;;;;;;;20.15;68.74;101274.06;5116161;28;19946;-73
2021/07/06 01:17:26;;;;;;;;;;;;;;;20.19;68.00;101278.94;5116145;28;19930;-73
2021/07/06 01:19:53;;;;;;;;;;;;;;;20.13;69.32;101270.69;5115400;28;20373;-73
2021/07/06 01:22:27;;;;;;;;;;;;;;;20.04;70.28;101268.84;5116040;28;19924;-74
2021/07/06 01:24:53;;;;;;;;;;;;;;;19.99;70.37;101269.28;5115406;28;19924;-74
2021/07/06 01:27:20;;;;;;;;;;;;;;;19.97;70.34;101264.09;5115539;28;19924;-74
2021/07/06 01:29:47;;;;;;;;;;;;;;;20.07;69.02;101258.88;5115371;28;19970;-73
2021/07/06 01:32:13;;;;;;;;;;;;;;;20.26;67.70;101252.78;5115861;28;19927;-73
2021/07/06 01:34:40;;;;;;;;;;;;;;;20.65;66.12;101258.19;5115597;28;19923;-73
2021/07/06 01:37:07;;;;;;;;;;;;;;;20.55;66.86;101255.53;5115373;28;19923;-73
2021/07/06 01:39:35;;;;;;;;;;;;;;;20.48;67.32;101251.75;5115690;28;19956;-74
2021/07/06 01:42:01;;;;;;;;;;;;;;;20.46;67.39;101248.41;5115278;28;19924;-73
2021/07/06 01:44:28;;;;;;;;;;;;;;;20.42;67.40;101247.84;5115620;28;19924;-73
2021/07/06 01:46:55;;;;;;;;;;;;;;;20.38;67.74;101245.59;5114996;28;19934;-73
2021/07/06 01:49:22;;;;;;;;;;;;;;;20.15;68.67;101247.63;5115045;28;19923;-73
2021/07/06 01:51:49;;;;;;;;;;;;;;;20.38;67.44;101248.25;5115255;28;19924;-73
2021/07/06 01:54:16;;;;;;;;;;;;;;;20.65;66.48;101243.19;5114957;28;20441;-72
2021/07/06 01:56:45;;;;;;;;;;;;;;;20.59;67.09;101251.63;5115032;28;19928;-73
2021/07/06 01:59:12;;;;;;;;;;;;;;;20.35;67.73;101245.88;5114815;28;20289;-73
2021/07/06 02:01:39;;;;;;;;;;;;;;;20.46;67.68;101251.03;5114709;28;19931;-73
2021/07/06 02:04:06;;;;;;;;;;;;;;;20.20;68.97;101248.91;5114895;28;19928;-73
2021/07/06 02:06:33;;;;;;;;;;;;;;;20.41;68.11;101250.63;5115045;28;20024;-74
2021/07/06 02:09:00;;;;;;;;;;;;;;;20.30;70.17;101250.75;5114933;28;19946;-73
2021/07/06 02:11:27;;;;;;;;;;;;;;;20.48;69.18;101246.47;5114754;28;19924;-73
2021/07/06 02:13:55;;;;;;;;;;;;;;;20.67;69.85;101249.13;5114389;28;19924;-73
2021/07/06 02:16:22;;;;;;;;;;;;;;;20.69;67.62;101250.81;5114683;28;19928;-73
2021/07/06 02:18:49;;;;;;;;;;;;;;;20.64;68.34;101246.78;5114590;28;19927;-73
2021/07/06 02:21:15;;;;;;;;;;;;;;;20.59;69.11;101246.34;5114584;28;19934;-74
2021/07/06 02:23:42;;;;;;;;;;;;;;;20.80;67.57;101243.56;5114653;28;19939;-73
2021/07/06 02:26:09;;;;;;;;;;;;;;;20.86;67.49;101242.22;5114494;28;19923;-73
2021/07/06 02:28:36;;;;;;;;;;;;;;;20.78;67.65;101240.25;5114460;28;19928;-73
2021/07/06 02:31:05;;;;;;;;;;;;;;;20.70;68.44;101244.56;5114430;28;19924;-73
2021/07/06 02:33:35;;;;;;;;;;;;;;;20.85;68.13;101240.53;5114226;28;19923;-73
2021/07/06 02:36:02;;;;;;;;;;;;;;;20.95;67.55;101251.09;5114391;28;20278;-73
2021/07/06 02:38:29;;;;;;;;;;;;;;;20.93;67.44;101235.38;5114102;28;19930;-72
2021/07/06 02:40:56;;;;;;;;;;;;;;;20.97;67.39;101239.41;5113979;28;19932;-73
2021/07/06 02:43:22;;;;;;;;;;;;;;;20.94;67.50;101237.06;5114460;28;19931;-73
2021/07/06 02:45:51;;;;;;;;;;;;;;;21.06;67.71;101235.06;5113755;28;19931;-73
2021/07/06 02:48:19;;;;;;;;;;;;;;;21.17;67.73;101237.59;5114044;28;20370;-72
2021/07/06 02:50:45;;;;;;;;;;;;;;;21.04;69.10;101235.22;5113684;28;20374;-72
2021/07/06 02:53:12;;;;;;;;;;;;;;;21.11;68.94;101230.19;5113931;28;19924;-72
2021/07/06 02:55:39;;;;;;;;;;;;;;;21.03;68.18;101238.84;5113687;28;20389;-72
2021/07/06 02:58:06;;;;;;;;;;;;;;;21.03;68.27;101236.19;5113742;28;19928;-73
2021/07/06 03:00:33;;;;;;;;;;;;;;;21.01;68.42;101232.00;5113681;28;20259;-73
2021/07/06 03:03:01;;;;;;;;;;;;;;;20.94;68.16;101229.13;5113417;28;20297;-72
2021/07/06 03:05:30;;;;;;;;;;;;;;;21.11;68.24;101238.13;5113694;28;20007;-72
2021/07/06 03:07:56;;;;;;;;;;;;;;;21.11;67.03;101224.91;5113383;28;19932;-73
2021/07/06 03:10:24;;;;;;;;;;;;;;;21.15;66.79;101228.13;5113977;28;19924;-73
2021/07/06 03:12:51;;;;;;;;;;;;;;;21.04;68.36;101227.31;5113273;28;19930;-73
2021/07/06 03:15:19;;;;;;;;;;;;;;;21.22;67.34;101224.75;5113439;28;19923;-72
2021/07/06 03:17:46;;;;;;;;;;;;;;;21.19;67.30;101227.66;5113291;28;19924;-73
2021/07/06 03:20:13;;;;;;;;;;;;;;;21.38;67.35;101237.44;5113431;28;19924;-73
2021/07/06 03:22:41;;;;;;;;;;;;;;;21.55;66.30;101233.19;5113124;28;19924;-72
2021/07/06 03:25:09;;;;;;;;;;;;;;;21.66;66.86;101237.50;5113438;28;20370;-72
2021/07/06 03:27:36;;;;;;;;;;;;;;;21.58;66.90;101235.56;5113343;28;19930;-72
2021/07/06 03:30:03;;;;;;;;;;;;;;;21.74;64.32;101232.31;5113573;28;19924;-72
2021/07/06 03:32:30;;;;;;;;;;;;;;;21.64;64.15;101231.50;5113593;28;19923;-72
2021/07/06 03:34:56;;;;;;;;;;;;;;;21.55;65.31;101229.72;5112932;28;20416;-72
2021/07/06 03:37:23;;;;;;;;;;;;;;;21.72;64.51;101231.59;5113560;28;19931;-72
2021/07/06 03:39:51;;;;;;;;;;;;;;;21.74;64.17;101233.13;5113126;28;19927;-72
2021/07/06 03:42:18;;;;;;;;;;;;;;;21.62;64.45;101236.94;5113043;28;19923;-72
2021/07/06 03:44:44;;;;;;;;;;;;;;;21.61;65.69;101237.94;5113183;28;20039;-72
2021/07/06 03:47:11;;;;;;;;;;;;;;;21.46;66.08;101237.53;5113089;28;19930;-72
2021/07/06 03:49:37;;;;;;;;;;;;;;;21.66;65.79;101234.84;5113152;28;19930;-72
2021/07/06 03:52:04;;;;;;;;;;;;;;;21.54;66.15;101234.19;5113031;28;19924;-73
2021/07/06 03:54:31;;;;;;;;;;;;;;;21.60;65.75;101230.94;5112781;28;19924;-73
2021/07/06 03:57:00;;;;;;;;;;;;;;;21.69;65.90;101226.59;5113063;28;19924;-73
2021/07/06 03:59:27;;;;;;;;;;;;;;;21.56;66.19;101232.22;5112805;28;19924;-73
2021/07/06 04:01:54;;;;;;;;;;;;;;;21.66;65.99;101235.69;5112906;28;19930;-73
2021/07/06 04:04:20;;;;;;;;;;;;;;;21.57;66.72;101236.53;5113087;28;19923;-73
2021/07/06 04:06:47;;;;;;;;;;;;;;;21.66;66.25;101237.50;5112900;28;19958;-73
2021/07/06 04:09:14;;;;;;;;;;;;;;;21.66;65.50;101229.56;5113189;28;19924;-73
2021/07/06 04:11:41;;;;;;;;;;;;;;;21.59;65.93;101231.94;5116612;28;19923;-72
2021/07/06 04:14:10;;;;;;;;;;;;;;;21.49;67.04;101228.47;5116997;28;19923;-69
2021/07/06 04:16:36;;;;;;;;;;;;;;;21.65;67.61;101226.03;5116905;28;20294;-69
2021/07/06 04:19:05;;;;;;;;;;;;;;;21.52;67.84;101230.84;5117210;28;20293;-69
2021/07/06 04:21:32;;;;;;;;;;;;;;;21.52;67.95;101230.84;5117178;28;19969;-69
2021/07/06 04:23:59;;;;;;;;;;;;;;;21.66;67.44;101230.38;5116631;28;19923;-69
2021/07/06 04:26:25;;;;;;;;;;;;;;;21.78;67.73;101232.84;5116768;28;20393;-69
2021/07/06 04:28:52;;;;;;;;;;;;;;;21.91;66.57;101242.13;5116475;28;19924;-69
2021/07/06 04:31:20;;;;;;;;;;;;;;;21.90;65.92;101240.44;5117053;28;19930;-69
2021/07/06 04:33:46;;;;;;;;;;;;;;;21.98;65.54;101238.88;5116656;28;19928;-71
2021/07/06 04:36:13;;;;;;;;;;;;;;;21.86;66.97;101239.09;5116553;28;19924;-70
2021/07/06 04:38:40;;;;;;;;;;;;;;;21.89;65.92;101243.25;5116655;28;19924;-70
2021/07/06 04:41:06;;;;;;;;;;;;;;;22.02;67.45;101240.28;5116409;28;19928;-70
2021/07/06 04:43:33;;;;;;;;;;;;;;;22.33;65.81;101233.69;5116747;28;19923;-71
2021/07/06 04:45:59;;;;;;;;;;;;;;;22.66;65.75;101234.03;5116235;28;19923;-70
2021/07/06 04:48:27;;;;;;;;;;;;;;;22.77;62.95;101232.97;5116403;28;19927;-71
2021/07/06 04:50:54;;;;;;;;;;;;;;;22.86;64.15;101234.69;5116042;27;19931;-68
2021/07/06 04:53:23;;;;;;;;;;;;;;;23.00;62.42;101226.22;5116126;28;19973;-69
2021/07/06 04:55:49;;;;;;;;;;;;;;;22.85;63.00;101226.88;5115873;28;19924;-69
2021/07/06 04:58:16;;;;;;;;;;;;;;;23.17;63.02;101221.03;5116454;28;19927;-69
2021/07/06 05:00:43;;;;;;;;;;;;;;;23.35;62.63;101219.19;5115797;28;20267;-69
2021/07/06 05:03:11;;;;;;;;;;;;;;;23.46;63.02;101218.06;5116414;28;19924;-69
2021/07/06 05:05:40;;;;;;;;;;;;;;;23.69;61.55;101213.88;5116044;28;19924;-69
2021/07/06 05:08:06;;;;;;;;;;;;;;;23.75;61.16;101212.44;5116240;28;19927;-69
2021/07/06 05:10:34;;;;;;;;;;;;;;;23.80;61.00;101214.63;5115968;28;19924;-69
2021/07/06 05:13:01;;;;;;;;;;;;;;;23.62;62.93;101214.66;5115638;28;20014;-69
2021/07/06 05:15:28;;;;;;;;;;;;;;;23.52;62.82;101214.78;5115280;28;19927;-69
2021/07/06 05:17:55;;;;;;;;;;;;;;;23.56;63.47;101224.09;5114896;28;19949;-69
2021/07/06 05:20:21;;;;;;;;;;;;;;;23.43;64.09;101224.53;5115345;28;20308;-69
2021/07/06 05:22:49;;;;;;;;;;;;;;;23.38;63.98;101221.50;5115033;28;19931;-69
2021/07/06 05:25:16;;;;;;;;;;;;;;;23.44;62.80;101215.56;5115922;28;19924;-69
2021/07/06 05:27:43;;;;;;;;;;;;;;;23.57;62.64;101214.31;5115630;28;19928;-69
2021/07/06 05:30:10;;;;;;;;;;;;;;;23.64;61.81;101215.34;5115398;28;20386;-70
2021/07/06 05:32:37;;;;;;;;;;;;;;;23.80;61.73;101211.97;5115559;27;20298;-69
2021/07/06 05:35:04;;;;;;;;;;;;;;;24.02;60.25;101210.53;5115802;28;19930;-68
2021/07/06 05:37:31;;;;;;;;;;;;;;;23.93;60.49;101207.03;5115819;28;20010;-70
2021/07/06 05:39:59;;;;;;;;;;;;;;;23.84;63.17;101208.81;5115001;28;19939;-70
2021/07/06 05:42:26;;;;;;;;;;;;;;;24.00;63.04;101213.38;5115358;28;20364;-71
2021/07/06 05:44:52;;;;;;;;;;;;;;;23.89;62.89;101208.31;5114917;28;19930;-70
2021/07/06 05:47:19;;;;;;;;;;;;;;;23.81;61.59;101219.75;5115567;28;19947;-70
2021/07/06 05:49:45;;;;;;;;;;;;;;;23.79;61.92;101221.75;5114963;28;19923;-70
2021/07/06 05:52:12;;;;;;;;;;;;;;;23.83;62.45;101224.91;5114997;28;20374;-70
2021/07/06 05:54:39;;;;;;;;;;;;;;;23.62;62.94;101218.16;5114712;28;19924;-72
2021/07/06 05:57:07;;;;;;;;;;;;;;;23.54;63.06;101215.44;5115091;28;19924;-72
2021/07/06 05:59:33;;;;;;;;;;;;;;;23.73;62.57;101216.22;5114951;28;19928;-71
2021/07/06 06:02:00;;;;;;;;;;;;;;;23.76;62.91;101219.41;5114947;28;19924;-71
2021/07/06 06:04:27;;;;;;;;;;;;;;;23.72;62.46;101219.88;5114911;28;20009;-72
2021/07/06 06:06:54;;;;;;;;;;;;;;;23.67;62.63;101215.84;5114862;28;19938;-72
2021/07/06 06:09:20;;;;;;;;;;;;;;;23.76;62.22;101221.22;5115107;28;19924;-73
2021/07/06 06:11:47;;;;;;;;;;;;;;;23.94;62.70;101213.97;5114756;28;19923;-73
2021/07/06 06:14:15;;;;;;;;;;;;;;;24.21;61.26;101206.78;5115050;28;19935;-73
2021/07/06 06:16:42;;;;;;;;;;;;;;;24.30;59.34;101211.09;5114342;28;20019;-72
2021/07/06 06:19:08;;;;;;;;;;;;;;;24.30;60.22;101213.75;5114966;28;19946;-72
2021/07/06 06:21:35;;;;;;;;;;;;;;;24.45;59.68;101208.66;5114446;28;19923;-72
2021/07/06 06:24:02;;;;;;;;;;;;;;;24.58;60.23;101208.19;5114880;28;20023;-72
2021/07/06 06:26:28;;;;;;;;;;;;;;;24.63;59.83;101216.50;5114360;28;19924;-70
2021/07/06 06:28:55;;;;;;;;;;;;;;;24.75;59.19;101213.34;5114384;28;19924;-70
2021/07/06 06:31:23;;;;;;;;;;;;;;;24.59;58.26;101221.34;5114401;28;19979;-71
2021/07/06 06:33:49;;;;;;;;;;;;;;;24.68;57.20;101220.31;5113018;28;20385;-70
2021/07/06 06:36:16;;;;;;;;;;;;;;;24.75;57.59;101217.84;5114587;28;19924;-70
2021/07/06 06:38:43;;;;;;;;;;;;;;;25.08;55.27;101218.66;5114027;28;19928;-70
2021/07/06 06:41:09;;;;;;;;;;;;;;;25.23;55.46;101218.00;5114089;28;19924;-70
2021/07/06 06:43:36;;;;;;;;;;;;;;;24.99;55.90;101214.34;5114441;28;19951;-70
2021/07/06 06:46:03;;;;;;;;;;;;;;;25.16;54.98;101225.84;5114399;28;19930;-70
2021/07/06 06:48:31;;;;;;;;;;;;;;;25.18;55.85;101219.34;5114019;28;19923;-70
2021/07/06 06:50:57;;;;;;;;;;;;;;;25.27;54.05;101214.81;5113658;28;19932;-70
2021/07/06 06:53:24;;;;;;;;;;;;;;;25.42;53.59;101209.63;5113865;28;19924;-70
2021/07/06 06:55:50;;;;;;;;;;;;;;;25.75;54.67;101215.69;5114020;28;19957;-70
2021/07/06 06:58:17;;;;;;;;;;;;;;;26.17;52.40;101214.50;5113948;28;19928;-70
2021/07/06 07:00:44;;;;;;;;;;;;;;;26.41;51.17;101210.88;5113772;28;19940;-70
2021/07/06 07:03:10;;;;;;;;;;;;;;;26.32;51.34;101216.44;5113685;28;20381;-70
2021/07/06 07:05:38;;;;;;;;;;;;;;;26.63;50.97;101225.25;5113690;28;19927;-70
2021/07/06 07:08:05;;;;;;;;;;;;;;;26.75;52.03;101227.50;5113940;28;19924;-70
2021/07/06 07:10:32;;;;;;;;;;;;;;;26.85;52.74;101228.09;5113882;28;19946;-70
2021/07/06 07:12:58;;;;;;;;;;;;;;;27.42;51.54;101229.41;5113165;28;20408;-70
2021/07/06 07:15:25;;;;;;;;;;;;;;;27.71;49.97;101232.06;5113849;28;19924;-70
2021/07/06 07:17:52;;;;;;;;;;;;;;;27.71;47.88;101225.88;5113137;28;19924;-70
2021/07/06 07:20:18;;;;;;;;;;;;;;;28.10;47.01;101222.06;5113617;28;19924;-69
2021/07/06 07:22:46;;;;;;;;;;;;;;;28.12;46.00;101225.41;5113165;28;19924;-69
2021/07/06 07:25:13;;;;;;;;;;;;;;;28.38;46.60;101228.34;5113348;28;19924;-70
2021/07/06 07:27:40;;;;;;;;;;;;;;;28.66;44.75;101222.28;5113245;28;20293;-71
2021/07/06 07:30:07;;;;;;;;;;;;;;;28.60;45.92;101234.56;5113281;28;19924;-71
2021/07/06 07:32:34;;;;;;;;;;;;;;;28.94;45.42;101230.34;5113223;28;19930;-71
2021/07/06 07:35:00;;;;;;;;;;;;;;;29.58;42.37;101223.97;5112899;28;20293;-71
2021/07/06 07:37:27;;;;;;;;;;;;;;;29.41;42.00;101231.50;5113214;28;19927;-71
2021/07/06 07:39:55;;;;;;;;;;;;;;;29.18;45.20;101231.75;5112828;28;20378;-71
2021/07/06 07:42:21;;;;;;;;;;;;;;;28.60;43.62;101225.72;5113363;28;19924;-72
2021/07/06 07:44:48;;;;;;;;;;;;;;;29.89;42.42;101233.44;5112391;28;19924;-71
2021/07/06 07:47:15;;;;;;;;;;;;;;;29.74;42.08;101228.22;5113451;28;19931;-72
2021/07/06 07:49:41;;;;;;;;;;;;;;;29.22;42.65;101229.53;5113083;28;19924;-71
2021/07/06 07:52:08;;;;;;;;;;;;;;;29.74;43.28;101228.22;5113073;28;19931;-72
2021/07/06 07:54:35;;;;;;;;;;;;;;;29.72;42.27;101225.75;5112767;28;19937;-71
2021/07/06 07:57:09;;;;;;;;;;;;;;;29.08;43.64;101221.41;5112476;28;20203;-71
2021/07/06 07:59:36;;;;;;;;;;;;;;;29.55;44.00;101226.25;5113198;28;19931;-71
2021/07/06 08:02:02;;;;;;;;;;;;;;;29.00;43.89;101226.03;5112835;28;19924;-71
2021/07/06 08:04:29;;;;;;;;;;;;;;;29.01;44.37;101231.22;5112999;28;20297;-71
2021/07/06 08:06:56;;;;;;;;;;;;;;;29.07;44.44;101238.50;5112509;28;19924;-71
2021/07/06 08:09:22;;;;;;;;;;;;;;;28.77;45.89;101228.94;5113077;28;19923;-71
2021/07/06 08:11:49;;;;;;;;;;;;;;;28.80;47.44;101233.94;5112796;28;19924;-71
2021/07/06 08:14:17;;;;;;;;;;;;;;;28.56;44.39;101230.63;5112769;28;20378;-71
2021/07/06 08:16:43;;;;;;;;;;;;;;;28.52;46.27;101237.38;5112764;28;19927;-71
2021/07/06 08:19:10;;;;;;;;;;;;;;;28.29;46.08;101234.03;5112708;28;19931;-70
2021/07/06 08:21:37;;;;;;;;;;;;;;;28.72;47.47;101234.06;5112671;28;19923;-71
2021/07/06 08:24:04;;;;;;;;;;;;;;;28.63;47.21;101233.38;5113134;28;19931;-71
2021/07/06 08:26:31;;;;;;;;;;;;;;;28.40;44.80;101226.31;5112666;28;19924;-71
2021/07/06 08:28:58;;;;;;;;;;;;;;;28.63;46.27;101233.38;5112643;28;20026;-71
2021/07/06 08:31:26;;;;;;;;;;;;;;;28.69;46.43;101237.94;5112559;28;20370;-71
2021/07/06 08:33:52;;;;;;;;;;;;;;;28.84;45.81;101237.88;5112349;28;20293;-71
2021/07/06 08:36:19;;;;;;;;;;;;;;;28.68;45.20;101236.28;5112783;28;19924;-71
2021/07/06 08:38:46;;;;;;;;;;;;;;;28.62;45.66;101237.06;5112332;28;19924;-71
2021/07/06 08:41:12;;;;;;;;;;;;;;;28.74;44.22;101237.38;5112718;28;19924;-70
2021/07/06 08:43:39;;;;;;;;;;;;;;;28.65;44.03;101239.38;5112250;28;19924;-70
2021/07/06 08:46:06;;;;;;;;;;;;;;;28.77;46.88;101242.34;5112822;28;19985;-70
2021/07/06 08:48:35;;;;;;;;;;;;;;;28.93;46.46;101239.41;5112663;28;19930;-71
2021/07/06 08:51:02;;;;;;;;;;;;;;;29.05;47.25;101240.53;5112082;28;19924;-70
2021/07/06 08:53:29;;;;;;;;;;;;;;;29.25;46.17;101243.38;5112519;28;19931;-70
2021/07/06 08:55:56;;;;;;;;;;;;;;;29.09;45.15;101241.00;5112491;28;19939;-71
2021/07/06 08:58:23;;;;;;;;;;;;;;;28.86;44.72;101233.16;5115938;28;20026;-70
2021/07/06 09:00:50;;;;;;;;;;;;;;;29.68;44.94;101243.25;5116067;28;19924;-70
2021/07/06 09:03:16;;;;;;;;;;;;;;;30.42;43.09;101236.31;5116045;28;19924;-71
2021/07/06 09:05:44;;;;;;;;;;;;;;;32.58;39.07;101230.03;5115797;28;19923;-71
2021/07/06 09:08:16;;;;;;;;;;;;;;;33.47;36.74;101235.22;5116423;28;19924;-71
2021/07/06 09:10:43;;;;;;;;;;;;;;;34.42;35.28;101240.06;5116049;28;19928;-71
2021/07/06 09:13:19;;;;;;;;;;;;;;;35.00;31.48;101238.53;5115914;28;20391;-70
2021/07/06 09:15:50;;;;;;;;;;;;;;;35.81;31.50;101236.78;5115662;28;20474;-71
2021/07/06 09:18:17;;;;;;;;;;;;;;;34.63;34.40;101226.06;5116104;28;19969;-71
2021/07/06 09:20:58;;;;;;;;;;;;;;;33.75;34.65;101227.44;5115653;28;19928;-71
2021/07/06 09:23:25;;;;;;;;;;;;;;;33.05;34.14;101225.09;5115767;28;19930;-71
2021/07/06 09:26:09;;;;;;;;;;;;;;;32.66;34.89;101226.25;5115404;28;20010;-71
2021/07/06 09:28:36;;;;;;;;;;;;;;;31.65;36.76;101231.31;5115978;28;19923;-71
2021/07/06 09:31:16;;;;;;;;;;;;;;;31.41;35.86;101229.28;5115538;28;20413;-70
2021/07/06 09:33:50;;;;;;;;;;;;;;;31.62;36.60;101233.56;5115225;28;19928;-71
2021/07/06 09:36:28;;;;;;;;;;;;;;;32.07;35.49;101233.63;5115763;28;19923;-71
2021/07/06 09:38:58;;;;;;;;;;;;;;;31.93;34.67;101230.16;5115156;28;19924;-70
2021/07/06 09:41:25;;;;;;;;;;;;;;;33.99;30.70;101227.56;5115240;28;19930;-71
2021/07/06 09:43:52;;;;;;;;;;;;;;;35.14;30.35;101231.84;5115337;28;19924;-71
2021/07/06 09:46:18;;;;;;;;;;;;;;;34.82;29.99;101223.25;5115515;28;19928;-71
2021/07/06 09:48:47;;;;;;;;;;;;;;;34.86;29.44;101230.66;5114959;28;20407;-71
2021/07/06 09:51:16;;;;;;;;;;;;;;;33.84;29.01;101227.97;5115137;28;19930;-71
2021/07/06 09:53:45;;;;;;;;;;;;;;;34.91;27.35;101224.50;5114455;28;20419;-71
2021/07/06 09:56:12;;;;;;;;;;;;;;;33.89;27.52;101221.91;5115085;28;19924;-71
2021/07/06 09:58:50;;;;;;;;;;;;;;;35.57;27.62;101230.59;5115084;28;19927;-71
2021/07/06 10:01:16;;;;;;;;;;;;;;;34.54;25.94;101221.19;5114863;28;19923;-71
2021/07/06 10:03:44;;;;;;;;;;;;;;;34.32;26.58;101213.59;5114662;28;20402;-70
2021/07/06 10:06:11;;;;;;;;;;;;;;;35.47;27.73;101217.66;5115028;28;19924;-71
2021/07/06 10:08:38;;;;;;;;;;;;;;;35.30;27.43;101223.00;5114667;28;19924;-71
2021/07/06 10:11:06;;;;;;;;;;;;;;;33.41;25.38;101212.69;5114786;28;19924;-70
2021/07/06 10:13:32;;;;;;;;;;;;;;;33.81;28.01;101221.16;5115035;28;19924;-70
2021/07/06 10:15:59;;;;;;;;;;;;;;;32.78;27.45;101202.91;5114643;28;19924;-71
2021/07/06 10:18:26;;;;;;;;;;;;;;;32.38;28.53;101203.19;5114773;28;19930;-71
2021/07/06 10:20:54;;;;;;;;;;;;;;;30.90;30.83;101213.84;5114259;28;20374;-71
2021/07/06 10:23:21;;;;;;;;;;;;;;;31.05;31.31;101206.38;5114838;28;19969;-71
2021/07/06 10:25:53;;;;;;;;;;;;;;;32.83;28.64;101213.03;5114292;28;19924;-71
2021/07/06 10:28:22;;;;;;;;;;;;;;;35.08;26.34;101217.38;5114305;28;20401;-71
2021/07/06 10:30:49;;;;;;;;;;;;;;;36.29;25.80;101204.91;5114482;27;19927;-71
2021/07/06 10:33:16;;;;;;;;;;;;;;;34.22;27.71;101200.69;5114792;28;19924;-71
2021/07/06 10:35:46;;;;;;;;;;;;;;;31.26;31.19;101202.63;5114374;28;19931;-70
2021/07/06 10:38:32;;;;;;;;;;;;;;;33.50;27.69;101211.34;5114460;28;20019;-71
2021/07/06 10:41:00;;;;;;;;;;;;;;;34.55;26.00;101199.31;5113742;28;19928;-71
2021/07/06 10:43:31;;;;;;;;;;;;;;;35.61;27.22;101202.03;5114444;28;20293;-71
2021/07/06 10:46:13;;;;;;;;;;;;;;;35.35;27.37;101200.66;5113906;28;20392;-71
2021/07/06 10:48:42;;;;;;;;;;;;;;;34.96;27.30;101203.00;5114086;28;19924;-71
2021/07/06 10:51:08;;;;;;;;;;;;;;;36.17;26.15;101203.13;5114054;28;20149;-71
2021/07/06 10:53:35;;;;;;;;;;;;;;;36.83;25.17;101197.94;5113708;28;19924;-71
2021/07/06 10:56:05;;;;;;;;;;;;;;;36.32;24.09;101188.16;5114393;28;19945;-71
2021/07/06 10:58:49;;;;;;;;;;;;;;;36.48;23.48;101191.94;5114511;28;19928;-71
2021/07/06 11:01:34;;;;;;;;;;;;;;;36.30;23.51;101199.28;5113717;28;19924;-71
2021/07/06 11:04:00;;;;;;;;;;;;;;;36.30;24.91;101201.97;5113533;28;19924;-71
2021/07/06 11:06:45;;;;;;;;;;;;;;;37.03;24.10;101191.19;5114018;28;19954;-71
2021/07/06 11:09:11;;;;;;;;;;;;;;;35.33;24.71;101198.19;5113616;28;19924;-71
2021/07/06 11:11:38;;;;;;;;;;;;;;;35.13;24.11;101192.34;5113818;28;19924;-71
2021/07/06 11:14:22;;;;;;;;;;;;;;;35.51;23.95;101204.50;5114130;28;19932;-72
2021/07/06 11:16:56;;;;;;;;;;;;;;;36.91;23.52;101198.59;5113793;28;19927;-71
2021/07/06 11:19:35;;;;;;;;;;;;;;;35.62;24.38;101202.84;5112827;28;19930;-71
2021/07/06 11:22:08;;;;;;;;;;;;;;;35.44;25.16;101201.09;5113198;28;19971;-71
2021/07/06 11:24:39;;;;;;;;;;;;;;;35.24;24.24;101196.91;5113424;28;19930;-71
2021/07/06 11:27:06;;;;;;;;;;;;;;;35.75;24.47;101203.38;5113339;28;19989;-71
2021/07/06 11:29:37;;;;;;;;;;;;;;;37.09;22.61;101200.22;5113204;28;19927;-72
2021/07/06 11:32:09;;;;;;;;;;;;;;;37.59;21.59;101194.66;5113273;28;19924;-72
2021/07/06 11:34:36;;;;;;;;;;;;;;;37.21;20.71;101193.63;5113292;28;19923;-72
2021/07/06 11:37:03;;;;;;;;;;;;;;;37.66;20.10;101199.88;5113172;28;20002;-71
2021/07/06 11:39:30;;;;;;;;;;;;;;;37.80;21.36;101203.03;5112981;28;20293;-72
2021/07/06 11:41:57;;;;;;;;;;;;;;;38.92;20.26;101198.59;5112809;28;20429;-71
2021/07/06 11:44:23;;;;;;;;;;;;;;;36.98;21.09;101199.25;5113335;28;19930;-71
2021/07/06 11:46:55;;;;;;;;;;;;;;;37.44;22.12;101206.13;5112886;28;20386;-71
2021/07/06 11:49:23;;;;;;;;;;;;;;;37.34;23.11;101202.47;5113343;28;19928;-71
2021/07/06 11:51:49;;;;;;;;;;;;;;;36.04;21.60;101202.53;5113168;28;19928;-72
2021/07/06 11:54:16;;;;;;;;;;;;;;;35.19;24.71;101204.91;5112903;28;19923;-71
2021/07/06 11:56:42;;;;;;;;;;;;;;;34.26;26.25;101209.13;5112732;28;19930;-71
2021/07/06 11:59:09;;;;;;;;;;;;;;;35.59;24.70;101214.97;5113348;28;19934;-71
2021/07/06 12:01:36;;;;;;;;;;;;;;;35.83;23.16;101210.28;5112814;28;20526;-71
2021/07/06 12:04:04;;;;;;;;;;;;;;;37.02;24.05;101208.50;5112904;28;20370;-71
2021/07/06 12:06:32;;;;;;;;;;;;;;;37.46;22.38;101203.16;5112833;28;19946;-72
2021/07/06 12:09:02;;;;;;;;;;;;;;;37.14;22.46;101203.00;5112475;28;19924;-72
2021/07/06 12:11:29;;;;;;;;;;;;;;;37.21;21.74;101198.22;5113006;28;19928;-72
2021/07/06 12:13:57;;;;;;;;;;;;;;;37.79;20.58;101185.91;5112555;28;19969;-72
2021/07/06 12:16:24;;;;;;;;;;;;;;;38.25;22.12;101188.25;5113093;28;19924;-72
2021/07/06 12:18:52;;;;;;;;;;;;;;;37.95;22.46;101183.34;5112487;28;20286;-71
2021/07/06 12:21:24;;;;;;;;;;;;;;;37.64;22.35;101183.84;5113103;28;19928;-71
2021/07/06 12:23:51;;;;;;;;;;;;;;;36.72;22.19;101189.94;5112659;28;19924;-71
2021/07/06 12:26:17;;;;;;;;;;;;;;;38.59;23.41;101188.00;5112978;28;19930;-72
2021/07/06 12:28:44;;;;;;;;;;;;;;;38.66;21.58;101181.25;5112324;28;19935;-72
2021/07/06 12:31:28;;;;;;;;;;;;;;;38.15;21.58;101182.72;5114073;28;20290;-72
2021/07/06 12:34:00;;;;;;;;;;;;;;;35.60;23.35;101186.03;5116506;28;19946;-71
2021/07/06 12:36:31;;;;;;;;;;;;;;;34.64;24.17;101175.53;5116972;28;19931;-71
2021/07/06 12:39:18;;;;;;;;;;;;;;;35.34;25.52;101189.00;5116288;28;19923;-71